Time;durP1;ratioP1;P1;durP2;ratioP2;P2;SDS_P1;SDS_P2;PMS_P1;PMS_P2;Temp;Humidity;BMP_temperature;BMP_pressure;BME280_temperature;BME280_humidity;BME280_pressure;Samples;Min_cycle;Max_cycle;Signal;HPM_P1;HPM_P2
2021/05/30 00:02:25;;;;;;;0.50;0.50;;;;;;;10.32;56.83;97189.56;4917763;29;20493;-75
2021/05/30 00:04:52;;;;;;;0.70;0.70;;;;;;;10.29;56.96;97197.78;4917388;29;20488;-76
2021/05/30 00:07:22;;;;;;;0.90;0.90;;;;;;;10.25;57.09;97192.16;4917419;29;20044;-75
2021/05/30 00:09:51;;;;;;;0.60;0.60;;;;;;;10.22;57.34;97189.09;4917500;29;20050;-75
2021/05/30 00:12:19;;;;;;;0.75;0.75;;;;;;;10.18;57.27;97185.25;4917477;29;20033;-75
2021/05/30 00:14:45;;;;;;;0.60;0.60;;;;;;;10.15;57.36;97187.28;4916604;29;20067;-75
2021/05/30 00:17:13;;;;;;;0.75;0.75;;;;;;;10.11;57.51;97180.81;4917366;29;20404;-76
2021/05/30 00:19:39;;;;;;;0.82;0.82;;;;;;;10.08;57.68;97183.84;4917203;29;20039;-76
2021/05/30 00:22:06;;;;;;;0.63;0.63;;;;;;;10.05;57.99;97183.41;4917897;29;20495;-75
2021/05/30 00:24:33;;;;;;;0.65;0.65;;;;;;;10.01;57.98;97180.38;4916451;29;20052;-75
2021/05/30 00:26:59;;;;;;;0.77;0.77;;;;;;;9.97;58.25;97179.13;4917088;29;20043;-75
2021/05/30 00:29:25;;;;;;;0.80;0.80;;;;;;;9.91;58.26;97174.69;4917192;29;20055;-75
2021/05/30 00:31:52;;;;;;;0.70;0.70;;;;;;;9.88;58.46;97177.69;4916933;29;20043;-75
2021/05/30 00:34:18;;;;;;;1.02;0.60;;;;;;;9.83;58.63;97174.88;4917237;29;20044;-75
2021/05/30 00:36:44;;;;;;;0.77;0.77;;;;;;;9.77;58.77;97170.41;4917503;29;20044;-76
2021/05/30 00:39:11;;;;;;;0.50;0.50;;;;;;;9.73;58.90;97176.00;4916857;29;20481;-75
2021/05/30 00:41:37;;;;;;;0.65;0.65;;;;;;;9.69;59.01;97174.78;4917019;29;20043;-77
2021/05/30 00:44:25;;;;;;;3.92;0.80;;;;;;;9.66;60.20;97182.22;4917098;29;20465;-76
2021/05/30 00:46:52;;;;;;;0.52;0.52;;;;;;;9.62;59.46;97179.19;4917458;29;20384;-76
2021/05/30 00:49:19;;;;;;;0.60;0.60;;;;;;;9.56;59.61;97172.09;4917169;29;20040;-76
2021/05/30 00:51:45;;;;;;;0.80;0.80;;;;;;;9.53;59.74;97180.34;4916929;29;20047;-76
2021/05/30 00:54:12;;;;;;;1.65;0.80;;;;;;;9.48;59.74;97180.13;4899957;29;20043;-76
2021/05/30 00:56:40;;;;;;;0.75;0.75;;;;;;;9.45;59.79;97173.47;4917351;29;20056;-76
2021/05/30 00:59:07;;;;;;;0.80;0.80;;;;;;;9.41;59.89;97174.00;4923121;29;20478;-77
2021/05/30 01:01:34;;;;;;;0.85;0.82;;;;;;;9.37;59.96;97185.91;4923574;29;20051;-77
2021/05/30 01:04:00;;;;;;;0.80;0.80;;;;;;;9.31;60.19;97174.38;4906404;29;20044;-76
2021/05/30 01:06:28;;;;;;;0.85;0.82;;;;;;;9.30;60.16;97185.81;4923580;29;20047;-77
2021/05/30 01:08:54;;;;;;;0.90;0.90;;;;;;;9.29;60.25;97181.59;4922941;29;20043;-76
2021/05/30 01:11:23;;;;;;;0.80;0.70;;;;;;;9.27;60.37;97181.78;4923185;29;20038;-76
2021/05/30 01:13:54;;;;;;;0.80;0.80;;;;;;;9.26;60.44;97185.41;4922929;29;20032;-77
2021/05/30 01:16:22;;;;;;;1.00;0.90;;;;;;;9.25;60.31;97186.41;4923146;29;20043;-76
2021/05/30 01:18:54;;;;;;;0.82;0.82;;;;;;;9.26;60.33;97182.81;4922566;29;20055;-77
2021/05/30 01:21:22;;;;;;;1.75;0.90;;;;;;;9.26;60.57;97179.34;4923379;29;20048;-76
2021/05/30 01:23:52;;;;;;;0.93;0.93;;;;;;;9.23;60.72;97188.41;4922980;29;20046;-76
2021/05/30 01:26:19;;;;;;;0.80;0.80;;;;;;;9.21;60.69;97189.59;4922916;29;20047;-77
2021/05/30 01:28:46;;;;;;;1.50;1.00;;;;;;;9.18;60.58;97182.16;4923652;29;20040;-76
2021/05/30 01:31:13;;;;;;;0.80;0.80;;;;;;;9.16;60.67;97182.34;4922015;29;20508;-76
2021/05/30 01:33:40;;;;;;;1.05;1.05;;;;;;;9.15;60.88;97183.31;4921943;29;20389;-76
2021/05/30 01:36:06;;;;;;;0.80;0.80;;;;;;;9.13;60.93;97180.91;4922611;29;20052;-77
2021/05/30 01:38:33;;;;;;;0.98;0.98;;;;;;;9.12;61.00;97181.88;4923118;29;20465;-77
2021/05/30 01:41:00;;;;;;;0.90;0.90;;;;;;;9.11;60.90;97185.53;4922834;29;20469;-77
2021/05/30 01:43:26;;;;;;;2.08;0.88;;;;;;;9.10;61.05;97180.47;4922741;29;20047;-76
2021/05/30 01:45:54;;;;;;;0.75;0.75;;;;;;;9.11;61.12;97187.31;4922428;29;20052;-76
2021/05/30 01:48:20;;;;;;;0.80;0.80;;;;;;;9.09;61.18;97184.91;4922782;29;20382;-76
2021/05/30 01:50:47;;;;;;;1.00;0.98;;;;;;;9.05;61.12;97188.91;4922589;29;20461;-76
2021/05/30 01:53:15;;;;;;;1.02;1.02;;;;;;;9.02;61.22;97180.59;4922567;29;20051;-76
2021/05/30 01:58:08;;;;;;;1.10;1.00;;;;;;;9.01;61.39;97189.44;4921180;29;20056;-76
2021/05/30 02:00:35;;;;;;;1.35;1.25;;;;;;;9.00;61.54;97180.78;4906116;29;20040;-77
2021/05/30 02:03:02;;;;;;;1.02;1.02;;;;;;;8.99;61.41;97189.66;4922910;29;20036;-75
2021/05/30 02:05:30;;;;;;;1.00;1.00;;;;;;;9.00;61.49;97188.63;4921459;29;20044;-76
2021/05/30 02:07:59;;;;;;;1.05;1.00;;;;;;;9.00;61.48;97193.06;4922219;29;20373;-76
2021/05/30 02:10:25;;;;;;;0.90;0.90;;;;;;;8.99;61.64;97184.41;4918673;29;20477;-77
2021/05/30 02:12:53;;;;;;;1.65;1.30;;;;;;;8.97;61.60;97190.84;4919609;29;20032;-77
2021/05/30 02:15:22;;;;;;;0.82;0.82;;;;;;;8.96;61.58;97194.44;4919569;29;20047;-77
2021/05/30 02:17:48;;;;;;;1.08;1.02;;;;;;;8.93;61.57;97185.16;4919660;29;20036;-77
2021/05/30 02:20:17;;;;;;;0.93;0.93;;;;;;;8.91;61.78;97187.97;4918733;29;20441;-77
2021/05/30 02:22:43;;;;;;;0.90;0.90;;;;;;;8.88;61.73;97185.75;4919641;29;20044;-77
2021/05/30 02:25:11;;;;;;;1.00;1.00;;;;;;;8.84;61.77;97192.34;4919384;29;20040;-77
2021/05/30 02:27:38;;;;;;;1.63;1.20;;;;;;;8.78;61.78;97187.88;4919890;29;20043;-77
2021/05/30 02:30:05;;;;;;;1.15;1.15;;;;;;;8.73;61.91;97193.66;4919292;29;20469;-76
2021/05/30 02:32:31;;;;;;;1.42;1.33;;;;;;;8.67;62.29;97190.97;4918795;29;20059;-76
2021/05/30 02:34:57;;;;;;;1.05;1.05;;;;;;;8.64;62.16;97191.34;4919005;29;20051;-76
2021/05/30 02:37:24;;;;;;;1.33;1.27;;;;;;;8.62;62.12;97190.72;4919487;29;20048;-76
2021/05/30 02:39:50;;;;;;;1.30;1.00;;;;;;;8.60;62.38;97190.09;4919262;29;20032;-76
2021/05/30 02:42:16;;;;;;;1.10;1.10;;;;;;;8.57;62.40;97190.47;4919403;29;20040;-77
2021/05/30 02:44:43;;;;;;;1.67;1.38;;;;;;;8.53;62.47;97187.44;4919053;29;20044;-77
2021/05/30 02:47:09;;;;;;;1.00;1.00;;;;;;;8.48;62.62;97182.75;4919148;29;20044;-77
2021/05/30 02:49:36;;;;;;;1.50;1.40;;;;;;;8.42;62.68;97183.50;4918877;29;20044;-76
2021/05/30 02:52:03;;;;;;;1.13;1.10;;;;;;;8.36;62.74;97192.06;4918869;29;20040;-76
2021/05/30 02:54:29;;;;;;;1.00;1.00;;;;;;;8.31;62.98;97197.81;4918895;29;20047;-75
2021/05/30 02:56:55;;;;;;;1.30;1.30;;;;;;;8.27;63.12;97191.38;4917904;29;20055;-75
2021/05/30 02:59:22;;;;;;;1.10;1.10;;;;;;;8.25;63.32;97200.34;4918609;29;20099;-75
2021/05/30 03:01:48;;;;;;;1.25;1.20;;;;;;;8.22;63.18;97195.53;4918428;29;20059;-75
2021/05/30 03:04:14;;;;;;;2.00;1.20;;;;;;;8.19;63.37;97198.47;4901924;29;20495;-75
2021/05/30 03:06:40;;;;;;;1.00;1.00;;;;;;;8.14;63.48;97205.06;4918502;29;20461;-75
2021/05/30 03:09:06;;;;;;;1.20;1.20;;;;;;;8.10;63.70;97205.63;4901816;29;20044;-75
2021/05/30 03:11:33;;;;;;;1.70;1.30;;;;;;;8.05;63.95;97205.38;4918525;29;20044;-75
2021/05/30 03:13:59;;;;;;;1.67;1.30;;;;;;;8.03;64.02;97202.94;4918395;29;20040;-75
2021/05/30 03:16:25;;;;;;;1.30;1.20;;;;;;;8.04;64.28;97209.78;4901821;29;20040;-75
2021/05/30 03:18:51;;;;;;;1.20;1.20;;;;;;;8.05;64.32;97210.59;4918661;29;20036;-75
2021/05/30 03:21:18;;;;;;;1.30;1.30;;;;;;;8.04;64.35;97209.78;4917875;29;20522;-76
2021/05/30 03:23:44;;;;;;;1.40;1.30;;;;;;;8.05;64.43;97211.41;4918752;29;20040;-76
2021/05/30 03:26:11;;;;;;;1.20;1.20;;;;;;;8.06;64.54;97215.66;4918430;29;20044;-76
2021/05/30 03:28:38;;;;;;;1.17;1.17;;;;;;;8.07;64.68;97208.63;4918261;29;20043;-77
2021/05/30 03:31:04;;;;;;;1.33;1.23;;;;;;;8.07;64.62;97214.63;4918299;29;20481;-77
2021/05/30 03:33:31;;;;;;;1.33;1.30;;;;;;;8.08;64.59;97212.81;4918491;29;20389;-76
2021/05/30 03:36:00;;;;;;;1.40;1.30;;;;;;;8.09;64.70;97219.69;4918767;29;20040;-75
2021/05/30 03:38:29;;;;;;;1.23;1.10;;;;;;;8.09;65.01;97212.66;4918079;29;20059;-76
2021/05/30 03:41:05;;;;;;;1.20;1.20;;;;;;;8.10;64.76;97216.88;4918134;29;20056;-76
2021/05/30 03:43:34;;;;;;;1.33;1.25;;;;;;;8.07;64.90;97217.25;4917897;29;20748;-77
2021/05/30 03:46:00;;;;;;;1.30;1.30;;;;;;;8.07;65.01;97213.84;4918394;29;20036;-76
2021/05/30 03:48:27;;;;;;;1.40;1.30;;;;;;;8.06;64.97;97210.41;4917798;29;20382;-77
2021/05/30 03:50:53;;;;;;;1.25;1.17;;;;;;;8.06;64.85;97199.97;4918165;29;20040;-77
2021/05/30 03:53:20;;;;;;;1.10;1.10;;;;;;;8.08;65.17;97205.00;4917002;29;20068;-77
2021/05/30 03:55:48;;;;;;;1.52;1.42;;;;;;;8.06;65.08;97199.97;4917675;29;20039;-76
2021/05/30 03:58:15;;;;;;;1.50;1.40;;;;;;;8.08;65.22;97205.00;4917800;29;20056;-76
2021/05/30 04:00:41;;;;;;;1.17;1.15;;;;;;;8.08;65.27;97203.22;4917878;29;20059;-77
2021/05/30 04:03:08;;;;;;;1.13;1.13;;;;;;;8.09;65.14;97204.81;4917707;29;20063;-75
2021/05/30 04:05:34;;;;;;;1.15;1.15;;;;;;;8.09;65.31;97217.06;4917777;29;20036;-76
2021/05/30 04:08:02;;;;;;;1.70;1.60;;;;;;;8.09;65.33;97214.47;4917716;29;20055;-75
2021/05/30 04:10:29;;;;;;;1.30;1.30;;;;;;;8.07;65.34;97214.63;4917440;29;20412;-76
2021/05/30 04:12:55;;;;;;;1.55;1.45;;;;;;;8.06;65.41;97215.66;4916642;29;20070;-75
2021/05/30 04:15:22;;;;;;;1.30;1.30;;;;;;;8.07;65.48;97212.03;4900394;29;20040;-75
2021/05/30 04:17:48;;;;;;;1.30;1.30;;;;;;;8.13;65.60;97210.50;4917669;29;20040;-75
2021/05/30 04:20:17;;;;;;;1.42;1.33;;;;;;;8.20;65.75;97213.97;4917297;29;20047;-76
2021/05/30 04:22:44;;;;;;;1.63;1.52;;;;;;;8.29;65.74;97217.28;4917424;29;20052;-75
2021/05/30 04:25:12;;;;;;;1.20;1.20;;;;;;;8.42;65.71;97211.44;4917301;29;20036;-76
2021/05/30 04:27:38;;;;;;;1.38;1.38;;;;;;;8.59;65.74;97218.06;4917079;29;20044;-76
2021/05/30 04:30:10;;;;;;;1.50;1.30;;;;;;;8.80;65.77;97216.44;4916732;29;20044;-75
2021/05/30 04:32:37;;;;;;;2.50;1.38;;;;;;;9.03;65.53;97217.06;4917065;29;20048;-75
2021/05/30 04:35:04;;;;;;;1.30;1.30;;;;;;;9.26;65.23;97211.59;4917440;29;20035;-75
2021/05/30 04:37:30;;;;;;;1.10;1.10;;;;;;;9.54;65.02;97216.00;4917381;29;20381;-75
2021/05/30 04:39:57;;;;;;;1.52;1.42;;;;;;;9.79;64.55;97205.88;4916878;29;20558;-75
2021/05/30 04:42:23;;;;;;;1.55;1.45;;;;;;;10.03;64.14;97212.41;4917021;29;20393;-75
2021/05/30 04:44:49;;;;;;;1.65;1.55;;;;;;;10.21;63.76;97204.03;4916210;29;20051;-75
2021/05/30 04:47:16;;;;;;;1.85;1.38;;;;;;;10.40;63.64;97201.72;4917058;29;20051;-75
2021/05/30 04:49:42;;;;;;;1.58;1.58;;;;;;;10.60;63.16;97207.78;4916838;29;20654;-75
2021/05/30 04:52:11;;;;;;;1.38;1.27;;;;;;;10.90;62.93;97208.25;4916782;29;20055;-75
2021/05/30 04:54:37;;;;;;;1.38;1.30;;;;;;;11.21;62.63;97203.38;4916678;29;20052;-76
2021/05/30 04:57:04;;;;;;;1.00;1.00;;;;;;;11.47;62.06;97200.75;4916413;29;20051;-75
2021/05/30 04:59:31;;;;;;;1.90;1.50;;;;;;;11.77;61.42;97192.38;4917286;29;20056;-76
2021/05/30 05:01:57;;;;;;;1.13;1.13;;;;;;;12.08;61.14;97198.78;4908452;29;20052;-75
2021/05/30 05:04:23;;;;;;;1.13;1.13;;;;;;;12.33;60.25;97186.53;4916743;29;20044;-75
2021/05/30 05:06:50;;;;;;;1.20;1.20;;;;;;;12.59;59.75;97185.56;4915844;29;20055;-76
2021/05/30 05:09:16;;;;;;;1.08;1.08;;;;;;;12.90;59.01;97177.88;4916932;29;20048;-76
2021/05/30 05:11:42;;;;;;;1.17;1.17;;;;;;;13.16;58.43;97169.72;4899718;29;20044;-76
2021/05/30 05:14:08;;;;;;;1.35;1.27;;;;;;;13.38;57.54;97169.38;4916754;29;20040;-75
2021/05/30 05:16:34;;;;;;;1.17;1.15;;;;;;;13.58;56.99;97159.44;4899587;29;20044;-76
2021/05/30 05:19:01;;;;;;;1.25;1.08;;;;;;;13.81;56.40;97150.84;4916669;29;20047;-75
2021/05/30 05:21:27;;;;;;;1.00;1.00;;;;;;;14.04;55.54;97152.00;4916476;29;20415;-75
2021/05/30 05:23:56;;;;;;;1.00;0.90;;;;;;;14.24;55.18;97148.31;4916669;29;20040;-76
2021/05/30 05:26:22;;;;;;;1.10;1.10;;;;;;;14.42;54.47;97148.25;4916785;29;20048;-75
2021/05/30 05:28:49;;;;;;;1.15;1.10;;;;;;;14.58;54.05;97139.75;4916498;29;20106;-76
2021/05/30 05:31:15;;;;;;;1.33;1.23;;;;;;;14.76;53.42;97140.69;4916692;29;20492;-75
2021/05/30 05:33:42;;;;;;;1.10;1.10;;;;;;;14.96;53.03;97133.25;4899888;29;20043;-75
2021/05/30 05:36:10;;;;;;;1.05;0.90;;;;;;;15.17;52.48;97126.59;4915784;29;20051;-75
2021/05/30 05:38:36;;;;;;;0.80;0.80;;;;;;;15.30;51.79;97122.09;4916470;29;20048;-78
2021/05/30 05:41:04;;;;;;;1.08;1.08;;;;;;;15.40;51.35;97124.97;4916868;29;20497;-76
2021/05/30 05:43:30;;;;;;;1.40;0.90;;;;;;;15.63;51.28;97124.94;4917844;29;20628;-77
2021/05/30 05:45:56;;;;;;;1.20;1.13;;;;;;;16.02;50.86;97125.22;4919925;29;20040;-74
2021/05/30 05:48:23;;;;;;;1.13;1.02;;;;;;;16.42;50.46;97118.22;4920179;29;20055;-74
2021/05/30 05:50:49;;;;;;;1.00;1.00;;;;;;;16.68;49.49;97116.81;4919752;29;20048;-74
2021/05/30 05:53:16;;;;;;;0.95;0.80;;;;;;;17.02;48.98;97125.59;4903344;29;20048;-75
2021/05/30 05:55:43;;;;;;;0.90;0.90;;;;;;;17.39;48.46;97135.66;4903314;29;20541;-77
2021/05/30 05:58:10;;;;;;;0.70;0.70;;;;;;;17.75;47.65;97138.78;4919980;29;20048;-75
2021/05/30 06:00:37;;;;;;;0.98;0.98;;;;;;;17.77;45.61;97162.41;4919889;29;20055;-75
2021/05/30 06:03:03;;;;;;;0.80;0.80;;;;;;;17.60;45.56;97160.63;4918795;29;20048;-76
2021/05/30 06:05:30;;;;;;;0.90;0.90;;;;;;;17.29;44.58;97155.94;4920055;29;20051;-75
2021/05/30 06:07:57;;;;;;;0.95;0.95;;;;;;;17.26;45.08;97165.19;4919992;29;20048;-75
2021/05/30 06:10:25;;;;;;;0.73;0.73;;;;;;;17.63;45.02;97162.75;4919737;29;20400;-76
2021/05/30 06:12:52;;;;;;;1.17;0.88;;;;;;;17.85;43.95;97154.84;4919501;29;20040;-76
2021/05/30 06:15:21;;;;;;;0.82;0.82;;;;;;;18.12;43.39;97147.97;4918866;29;20063;-76
2021/05/30 06:17:56;;;;;;;0.80;0.80;;;;;;;17.93;42.19;97195.28;4901555;29;20480;-76
2021/05/30 06:20:24;;;;;;;0.75;0.75;;;;;;;17.75;42.26;97202.47;4920131;29;20392;-76
2021/05/30 06:22:50;;;;;;;0.80;0.80;;;;;;;17.70;42.10;97193.63;4919630;29;20047;-76
2021/05/30 06:25:16;;;;;;;1.40;0.63;;;;;;;17.98;42.40;97196.16;4918611;29;20060;-75
2021/05/30 06:27:43;;;;;;;3.00;0.80;;;;;;;18.39;41.83;97193.94;4918738;29;20052;-75
2021/05/30 06:30:10;;;;;;;0.75;0.75;;;;;;;18.72;41.36;97181.53;4919136;29;20054;-75
2021/05/30 06:32:36;;;;;;;1.02;1.02;;;;;;;19.02;41.10;97181.03;4919270;29;20040;-75
2021/05/30 06:35:03;;;;;;;2.13;0.98;;;;;;;18.96;40.23;97184.72;4919244;29;20036;-75
2021/05/30 06:37:30;;;;;;;1.67;0.90;;;;;;;19.25;40.30;97181.72;4919125;29;20036;-75
2021/05/30 06:39:56;;;;;;;0.95;0.85;;;;;;;19.60;39.55;97178.47;4919258;29;20394;-75
2021/05/30 06:42:23;;;;;;;0.85;0.85;;;;;;;19.82;39.36;97172.22;4919076;29;20033;-75
2021/05/30 06:44:49;;;;;;;0.65;0.63;;;;;;;19.84;38.72;97178.09;4919035;29;20404;-75
2021/05/30 06:47:16;;;;;;;0.95;0.95;;;;;;;19.84;38.00;97178.91;4919071;29;20064;-75
2021/05/30 06:49:42;;;;;;;0.90;0.90;;;;;;;19.55;37.91;97191.78;4918976;29;20044;-74
2021/05/30 06:52:09;;;;;;;0.80;0.80;;;;;;;19.45;38.05;97181.06;4919106;29;20043;-75
2021/05/30 06:54:35;;;;;;;0.90;0.90;;;;;;;19.29;38.13;97182.00;4918777;29;20047;-74
2021/05/30 06:57:02;;;;;;;0.70;0.70;;;;;;;19.44;38.30;97187.44;4917933;29;20048;-75
2021/05/30 06:59:29;;;;;;;0.88;0.88;;;;;;;19.58;37.92;97185.13;4918743;29;20052;-74
2021/05/30 07:01:55;;;;;;;0.52;0.52;;;;;;;19.69;37.62;97194.75;4918739;29;20044;-74
2021/05/30 07:04:22;;;;;;;2.72;0.70;;;;;;;19.76;36.91;97183.91;4918955;29;20051;-74
2021/05/30 07:06:49;;;;;;;1.70;0.63;;;;;;;19.65;36.65;97189.16;4917914;29;20052;-75
2021/05/30 07:09:15;;;;;;;0.80;0.80;;;;;;;19.61;36.38;97201.38;4918838;29;20405;-75
2021/05/30 07:11:41;;;;;;;0.50;0.50;;;;;;;19.20;35.71;97193.13;4901790;29;20389;-74
2021/05/30 07:14:08;;;;;;;0.60;0.60;;;;;;;18.94;35.74;97196.63;4918549;29;20488;-74
2021/05/30 07:16:34;;;;;;;0.40;0.40;;;;;;;19.00;36.18;97200.94;4918359;29;20051;-75
2021/05/30 07:19:00;;;;;;;0.90;0.60;;;;;;;19.32;36.18;97194.78;4918400;29;20047;-75
2021/05/30 07:21:26;;;;;;;0.60;0.60;;;;;;;19.33;35.11;97197.19;4918501;29;20044;-75
2021/05/30 07:23:53;;;;;;;0.60;0.60;;;;;;;19.27;34.85;97201.66;4918574;29;20477;-75
2021/05/30 07:26:19;;;;;;;0.60;0.60;;;;;;;19.44;34.66;97196.22;4901463;29;20229;-75
2021/05/30 07:28:45;;;;;;;0.70;0.70;;;;;;;19.42;34.17;97200.19;4917603;29;20499;-75
2021/05/30 07:31:13;;;;;;;0.57;0.57;;;;;;;19.71;34.16;97198.00;4917785;29;20044;-75
2021/05/30 07:33:39;;;;;;;0.68;0.63;;;;;;;19.60;33.37;97196.31;4917970;29;20036;-75
2021/05/30 07:36:06;;;;;;;0.63;0.63;;;;;;;19.44;33.54;97201.56;4917818;29;20071;-76
2021/05/30 07:38:34;;;;;;;0.68;0.65;;;;;;;19.63;33.52;97199.28;4916743;29;20071;-77
2021/05/30 07:41:01;;;;;;;0.70;0.70;;;;;;;19.96;33.37;97207.19;4917836;29;20044;-77
2021/05/30 07:43:28;;;;;;;1.25;0.60;;;;;;;20.07;33.06;97208.81;4917897;29;20040;-74
2021/05/30 07:45:54;;;;;;;1.02;0.80;;;;;;;20.40;33.09;97202.28;4917428;29;20465;-75
2021/05/30 07:48:20;;;;;;;0.70;0.70;;;;;;;20.69;32.79;97204.50;4901056;29;20390;-75
2021/05/30 07:50:48;;;;;;;0.65;0.65;;;;;;;20.74;32.63;97201.03;4917682;29;20036;-75
2021/05/30 07:53:15;;;;;;;0.50;0.50;;;;;;;20.65;32.22;97209.56;4917768;29;20033;-75
2021/05/30 07:55:43;;;;;;;0.60;0.60;;;;;;;20.93;32.29;97210.13;4917590;29;20059;-75
2021/05/30 07:58:10;;;;;;;0.60;0.60;;;;;;;21.28;32.03;97197.88;4916758;29;20060;-76
2021/05/30 08:00:38;;;;;;;0.80;0.80;;;;;;;21.24;30.86;97207.47;4909846;29;20060;-74
2021/05/30 08:03:04;;;;;;;0.70;0.70;;;;;;;20.75;30.34;97200.00;4918001;29;20040;-75
2021/05/30 08:05:30;;;;;;;0.40;0.40;;;;;;;20.39;30.63;97211.34;4917557;29;20046;-76
2021/05/30 08:07:57;;;;;;;0.68;0.68;;;;;;;20.14;30.04;97201.41;4916867;29;20044;-75
2021/05/30 08:10:26;;;;;;;0.52;0.52;;;;;;;19.83;29.92;97203.91;4917490;29;20040;-75
2021/05/30 08:12:52;;;;;;;0.57;0.57;;;;;;;19.73;29.95;97201.19;4917409;29;20429;-74
2021/05/30 08:15:19;;;;;;;0.40;0.40;;;;;;;19.72;29.90;97198.78;4917805;29;20051;-75
2021/05/30 08:17:46;;;;;;;0.50;0.50;;;;;;;20.08;29.93;97200.56;4916701;29;20052;-75
2021/05/30 08:20:14;;;;;;;0.50;0.50;;;;;;;20.59;30.00;97207.16;4916916;29;20507;-73
2021/05/30 08:22:41;;;;;;;0.50;0.50;;;;;;;20.49;29.29;97205.22;4916734;29;20071;-74
2021/05/30 08:25:08;;;;;;;0.60;0.60;;;;;;;20.24;29.06;97205.94;4917242;29;20040;-73
2021/05/30 08:27:34;;;;;;;0.45;0.45;;;;;;;20.34;29.09;97205.19;4900729;29;20051;-73
2021/05/30 08:30:01;;;;;;;1.08;0.70;;;;;;;20.47;28.98;97196.69;4917094;29;20047;-74
2021/05/30 08:32:27;;;;;;;0.50;0.50;;;;;;;20.65;28.75;97204.22;4917101;29;20485;-73
2021/05/30 08:34:53;;;;;;;0.60;0.60;;;;;;;20.76;28.63;97199.72;4917188;29;20055;-73
2021/05/30 08:37:19;;;;;;;2.28;0.50;;;;;;;20.87;28.40;97200.50;4917183;29;20044;-74
2021/05/30 08:39:47;;;;;;;1.55;0.55;;;;;;;20.83;27.39;97202.09;4916855;29;20048;-73
2021/05/30 08:42:13;;;;;;;0.50;0.50;;;;;;;20.65;27.34;97208.75;4915608;29;20048;-73
2021/05/30 08:44:39;;;;;;;1.30;0.60;;;;;;;20.59;27.38;97210.59;4916961;29;20047;-74
2021/05/30 08:47:06;;;;;;;0.88;0.50;;;;;;;20.67;27.22;97215.44;4916959;29;20047;-74
2021/05/30 08:49:32;;;;;;;0.68;0.68;;;;;;;20.80;27.19;97202.66;4916811;29;20044;-74
2021/05/30 08:51:58;;;;;;;0.63;0.63;;;;;;;20.90;26.71;97210.66;4916839;29;20050;-74
2021/05/30 08:54:25;;;;;;;0.57;0.55;;;;;;;20.37;26.28;97215.31;4917019;29;20051;-73
2021/05/30 08:56:51;;;;;;;0.50;0.50;;;;;;;20.38;26.89;97206.28;4916753;29;20075;-74
2021/05/30 08:59:20;;;;;;;0.82;0.43;;;;;;;20.26;25.78;97203.81;4916991;29;20052;-74
2021/05/30 09:01:47;;;;;;;1.30;0.50;;;;;;;20.32;26.32;97212.63;4917003;29;20040;-75
2021/05/30 09:04:14;;;;;;;0.50;0.50;;;;;;;20.25;26.39;97228.88;4907457;29;20048;-74
2021/05/30 09:06:45;;;;;;;2.15;0.77;;;;;;;20.05;26.61;97210.94;4915880;29;20056;-73
2021/05/30 09:09:12;;;;;;;0.52;0.52;;;;;;;19.99;27.13;97214.63;4917240;29;20044;-74
2021/05/30 09:11:50;;;;;;;0.50;0.50;;;;;;;19.77;27.64;97228.09;4916989;29;20048;-74
2021/05/30 09:14:27;;;;;;;0.40;0.40;;;;;;;19.74;27.18;97217.97;4915978;29;20416;-74
2021/05/30 09:17:04;;;;;;;0.60;0.60;;;;;;;19.62;27.23;97216.28;4900472;29;20472;-75
2021/05/30 09:19:39;;;;;;;0.63;0.63;;;;;;;19.45;27.36;97223.63;4905977;29;20070;-75
2021/05/30 09:22:15;;;;;;;0.55;0.50;;;;;;;19.33;27.71;97215.81;4920862;29;20039;-74
2021/05/30 09:24:58;;;;;;;0.45;0.40;;;;;;;19.49;28.13;97206.09;4910860;29;20032;-74
2021/05/30 09:27:25;;;;;;;0.50;0.50;;;;;;;19.72;27.96;97198.78;4920400;29;20040;-74
2021/05/30 09:30:16;;;;;;;0.60;0.60;;;;;;;19.86;27.09;97218.56;4919493;29;20048;-74
2021/05/30 09:32:58;;;;;;;0.75;0.75;;;;;;;19.51;27.60;97209.31;4903490;29;20040;-74
2021/05/30 09:35:37;;;;;;;0.60;0.55;;;;;;;19.23;27.76;97202.44;4920314;29;20040;-74
2021/05/30 09:38:03;;;;;;;0.95;0.70;;;;;;;19.19;28.17;97210.16;4909346;29;20044;-73
2021/05/30 09:40:49;;;;;;;0.68;0.68;;;;;;;19.29;28.77;97212.06;4920097;29;20044;-73
2021/05/30 09:43:27;;;;;;;0.50;0.50;;;;;;;19.47;28.16;97211.66;4919629;29;20052;-74
2021/05/30 09:46:05;;;;;;;0.68;0.68;;;;;;;19.59;27.25;97213.31;4920103;29;20044;-73
2021/05/30 09:48:32;;;;;;;0.63;0.63;;;;;;;19.91;28.41;97207.97;4919947;29;20457;-73
2021/05/30 09:51:05;;;;;;;1.10;0.70;;;;;;;20.45;28.51;97202.31;4920019;29;20055;-73
2021/05/30 09:53:39;;;;;;;0.70;0.70;;;;;;;20.37;27.81;97204.66;4919878;29;20358;-73
2021/05/30 09:56:27;;;;;;;0.68;0.68;;;;;;;20.10;27.64;97202.97;4919855;29;20032;-73
2021/05/30 09:58:54;;;;;;;0.82;0.75;;;;;;;20.03;28.36;97200.56;4907798;29;20056;-74
2021/05/30 10:01:21;;;;;;;0.63;0.57;;;;;;;20.29;28.32;97211.31;4920103;29;20052;-73
2021/05/30 10:03:47;;;;;;;0.55;0.55;;;;;;;20.03;28.47;97211.22;4920141;29;20039;-73
2021/05/30 10:06:14;;;;;;;0.52;0.52;;;;;;;19.97;28.74;97211.44;4918959;29;20064;-73
2021/05/30 10:08:40;;;;;;;0.50;0.50;;;;;;;20.03;28.73;97221.03;4919214;29;20182;-74
2021/05/30 10:11:07;;;;;;;1.15;0.73;;;;;;;20.14;28.83;97222.72;4902573;29;20059;-75
2021/05/30 10:13:33;;;;;;;0.52;0.52;;;;;;;19.89;28.69;97214.59;4918306;29;20063;-74
2021/05/30 10:16:00;;;;;;;0.63;0.60;;;;;;;19.93;28.69;97211.16;4919881;29;20047;-74
2021/05/30 10:18:34;;;;;;;0.60;0.60;;;;;;;20.04;28.70;97209.34;4919398;29;20048;-74
2021/05/30 10:21:01;;;;;;;0.80;0.80;;;;;;;20.44;28.60;97213.22;4919919;29;20040;-74
2021/05/30 10:23:28;;;;;;;0.75;0.75;;;;;;;20.82;28.29;97203.19;4919396;29;20057;-74
2021/05/30 10:26:23;;;;;;;0.70;0.70;;;;;;;20.98;27.33;97191.47;4919127;29;20408;-74
2021/05/30 10:29:11;;;;;;;2.47;0.70;;;;;;;20.68;27.17;97203.72;4919255;29;20036;-74
2021/05/30 10:31:39;;;;;;;0.80;0.80;;;;;;;20.61;27.63;97194.38;4918773;29;20056;-74
2021/05/30 10:34:22;;;;;;;0.70;0.70;;;;;;;20.73;27.57;97212.78;4919002;29;20047;-74
2021/05/30 10:36:54;;;;;;;0.77;0.77;;;;;;;20.67;26.51;97204.75;4918757;29;20040;-74
2021/05/30 10:39:29;;;;;;;0.80;0.80;;;;;;;20.44;27.24;97208.69;4918918;29;20044;-74
2021/05/30 10:42:27;;;;;;;0.70;0.70;;;;;;;20.40;27.52;97190.81;4919253;29;20033;-74
2021/05/30 10:45:02;;;;;;;0.90;0.90;;;;;;;20.44;27.31;97199.91;4896649;29;20043;-74
2021/05/30 10:47:41;;;;;;;0.70;0.70;;;;;;;20.25;27.89;97194.25;4918936;29;20107;-74
2021/05/30 10:50:16;;;;;;;1.00;0.90;;;;;;;20.59;27.67;97191.94;4918884;29;20051;-73
2021/05/30 10:52:44;;;;;;;0.75;0.75;;;;;;;20.42;27.49;97192.16;4919100;29;20095;-74
2021/05/30 10:55:17;;;;;;;0.60;0.60;;;;;;;20.43;27.93;97188.44;4918973;29;20044;-74
2021/05/30 10:57:53;;;;;;;0.65;0.65;;;;;;;20.70;28.20;97176.78;4919115;29;20056;-74
2021/05/30 11:00:19;;;;;;;0.60;0.60;;;;;;;21.01;27.87;97174.13;4918888;29;20044;-74
2021/05/30 11:03:01;;;;;;;0.68;0.68;;;;;;;21.47;27.07;97174.91;4918273;29;20059;-75
2021/05/30 11:05:50;;;;;;;0.80;0.80;;;;;;;21.63;28.02;97167.69;4919037;29;20036;-74
2021/05/30 11:08:34;;;;;;;1.25;0.80;;;;;;;22.00;27.11;97166.47;4909299;29;20040;-74
2021/05/30 11:11:09;;;;;;;0.60;0.60;;;;;;;22.19;26.23;97155.16;4917669;29;20767;-74
2021/05/30 11:13:59;;;;;;;0.73;0.73;;;;;;;22.57;27.91;97160.84;4918352;29;20500;-74
2021/05/30 11:16:31;;;;;;;0.80;0.80;;;;;;;22.67;27.06;97152.78;4918817;29;20473;-74
2021/05/30 11:19:03;;;;;;;0.60;0.60;;;;;;;22.08;27.53;97157.09;4918137;29;20032;-74
2021/05/30 11:21:33;;;;;;;0.98;0.65;;;;;;;21.47;28.16;97166.91;4918502;29;20047;-74
2021/05/30 11:24:11;;;;;;;0.73;0.73;;;;;;;21.46;29.39;97180.50;4918295;29;20036;-74
2021/05/30 11:26:38;;;;;;;3.05;0.85;;;;;;;21.82;28.89;97165.22;4918025;29;20044;-73
2021/05/30 11:29:06;;;;;;;0.75;0.70;;;;;;;22.28;28.80;97161.59;4918411;29;20040;-74
2021/05/30 11:31:33;;;;;;;0.80;0.80;;;;;;;22.83;28.64;97158.81;4901039;29;20477;-74
2021/05/30 11:34:04;;;;;;;0.73;0.73;;;;;;;22.77;27.77;97149.22;4918084;29;20047;-74
2021/05/30 11:36:33;;;;;;;0.75;0.75;;;;;;;22.65;26.83;97153.03;4916957;29;20590;-74
2021/05/30 11:39:19;;;;;;;0.60;0.60;;;;;;;22.47;27.08;97154.50;4918350;29;20079;-74
2021/05/30 11:41:52;;;;;;;0.95;0.82;;;;;;;22.65;27.62;97155.72;4910734;29;20386;-74
2021/05/30 11:44:23;;;;;;;0.70;0.70;;;;;;;22.38;26.17;97166.06;4918319;29;20047;-74
2021/05/30 11:46:57;;;;;;;1.17;0.60;;;;;;;22.24;26.73;97149.84;4917782;29;20039;-74